Son Bonet Aerodrome

Airport
ICAO code: 
LESB
Summary
ICAO Region: 
EUR
Territory: 
Location: 
Palma de Mallorca, Baleariac Islands,
Serving: 
Palma de Mallorca
Elevation: 
135 ft
Coordinates: 
Aerial View: 
39° 35' 55.849" N, 2° 42' 9.827" E
Metar
Observation
LESB 291400Z AUTO 31008KT 270V330 CAVOK 15/M02 Q1014
Station
Son Bonet Aerodrome
Date/Time
2021-11-29 14:00:00
Wind direction
310°
Wind speed
08 kts
Lowest cloud amount
clouds and visibility OK
Temperature
15°C
Dew point
-2°C
Humidity
30%
QNH
1014 hPa
Weather condition
n/a

Description

Son Bonet Aerodrome, primarily used for general and leisure aviation.

Climatology

Dry-summer subtropical ”Mediterranean" climate (Köppen climate classification Csa) - characterized by hot, dry summers and mild winters. During the summer, subtropical high pressure cells dominate, making rainfall unlikely except for the occasional thunderstorm. In the winter, periodic storms bring rain (snow at higher elevations).

Runways

Designator Length Width Surface Rops
6/24 1000 22 ASP No/No
Airport map: 
Aerial View: 

Accidents and Serious Incidents at or in the vicinity of LESB

SKYbrary Partners:

Safety knowledge contributed by: